Time;durP1;ratioP1;P1;durP2;ratioP2;P2;SDS_P1;SDS_P2;PMS_P1;PMS_P2;Temp;Humidity;BMP_temperature;BMP_pressure;BME280_temperature;BME280_humidity;BME280_pressure;Samples;Min_cycle;Max_cycle;Signal;HPM_P1;HPM_P2
2022/03/07 00:00:45;;;;;;;2.17;1.10;;;2.30;99.90;;;;;;6311311;28;20429;-74
2022/03/07 00:03:50;;;;;;;1.80;0.90;;;2.20;99.90;;;;;;6311595;28;20287;-74
2022/03/07 00:06:56;;;;;;;1.30;1.20;;;2.30;99.90;;;;;;6311224;28;20274;-74
2022/03/07 00:10:01;;;;;;;1.00;1.00;;;2.30;99.90;;;;;;6310615;28;20298;-74
2022/03/07 00:13:07;;;;;;;2.17;1.00;;;2.20;99.90;;;;;;6310850;28;20370;-74
2022/03/07 00:16:16;;;;;;;1.10;1.10;;;2.30;99.90;;;;;;6311817;28;20290;-75
2022/03/07 00:19:21;;;;;;;1.03;1.03;;;2.20;99.90;;;;;;6290268;28;20493;-74
2022/03/07 00:22:27;;;;;;;2.83;1.10;;;2.30;99.90;;;;;;6286270;28;20296;-74
2022/03/07 00:25:32;;;;;;;2.03;1.03;;;2.20;99.90;;;;;;6286440;28;20326;-74
2022/03/07 00:28:39;;;;;;;2.13;1.00;;;2.20;99.90;;;;;;6285961;28;20302;-74
2022/03/07 00:31:45;;;;;;;2.10;1.20;;;2.30;99.90;;;;;;6285142;28;20276;-74
2022/03/07 00:34:51;;;;;;;2.33;1.00;;;2.20;99.90;;;;;;6285980;28;20314;-74
2022/03/07 00:37:56;;;;;;;3.83;0.90;;;2.20;99.90;;;;;;6285822;28;20309;-74
2022/03/07 00:41:02;;;;;;;1.93;1.17;;;2.20;99.90;;;;;;6286790;28;20294;-74
2022/03/07 00:44:09;;;;;;;1.63;0.97;;;2.20;99.90;;;;;;6285554;28;20299;-74
2022/03/07 00:47:16;;;;;;;2.13;1.13;;;2.10;99.90;;;;;;6285380;28;20293;-74
2022/03/07 00:50:21;;;;;;;3.17;1.10;;;2.20;99.90;;;;;;6285948;28;20550;-74
2022/03/07 00:53:28;;;;;;;2.17;1.00;;;2.30;99.90;;;;;;6268179;28;20302;-74
2022/03/07 00:56:34;;;;;;;1.10;1.10;;;2.20;99.90;;;;;;6285905;28;20292;-74
2022/03/07 00:59:41;;;;;;;3.03;1.00;;;2.20;99.90;;;;;;6283831;28;20299;-74
2022/03/07 01:02:46;;;;;;;2.23;0.90;;;2.10;99.90;;;;;;6285338;28;20290;-74
2022/03/07 01:05:52;;;;;;;2.07;1.30;;;2.20;99.90;;;;;;6285921;28;20532;-75
2022/03/07 01:08:58;;;;;;;1.00;1.00;;;2.10;99.90;;;;;;6285548;28;20310;-74
2022/03/07 01:12:05;;;;;;;3.30;1.07;;;2.10;99.90;;;;;;6283753;28;20275;-74
2022/03/07 01:15:14;;;;;;;1.30;1.20;;;2.10;99.90;;;;;;6285832;28;20278;-74
2022/03/07 01:18:19;;;;;;;1.77;1.10;;;2.20;99.90;;;;;;6280254;28;20298;-74
2022/03/07 01:21:25;;;;;;;4.13;1.20;;;2.20;99.90;;;;;;6311067;28;20271;-74
2022/03/07 01:24:31;;;;;;;1.10;1.10;;;2.00;99.90;;;;;;6309341;28;20297;-75
2022/03/07 01:27:37;;;;;;;2.47;1.10;;;2.00;99.90;;;;;;6310469;28;20299;-74
2022/03/07 01:30:44;;;;;;;2.30;1.10;;;2.00;99.90;;;;;;6309478;28;20274;-74
2022/03/07 01:33:49;;;;;;;1.30;1.30;;;2.00;99.90;;;;;;6309657;28;20294;-74
2022/03/07 01:36:55;;;;;;;2.47;1.40;;;2.10;99.90;;;;;;6309684;28;20271;-75
2022/03/07 01:40:01;;;;;;;1.20;1.10;;;2.10;99.90;;;;;;6308930;28;20278;-74
2022/03/07 01:43:07;;;;;;;1.13;1.13;;;2.10;99.90;;;;;;6310618;28;20296;-74
2022/03/07 01:46:19;;;;;;;2.07;1.20;;;2.10;99.90;;;;;;6309572;28;20273;-74
2022/03/07 01:49:25;;;;;;;1.40;1.03;;;2.10;99.90;;;;;;6309681;28;20304;-74
2022/03/07 01:52:31;;;;;;;1.23;1.10;;;2.10;99.90;;;;;;6309981;28;20286;-74
2022/03/07 01:55:36;;;;;;;2.20;1.10;;;2.10;99.90;;;;;;6292321;28;20359;-74
2022/03/07 01:58:43;;;;;;;1.00;1.00;;;2.00;99.90;;;;;;6295786;28;20307;-74
2022/03/07 02:01:49;;;;;;;0.93;0.90;;;2.00;99.90;;;;;;6297364;28;20266;-74
2022/03/07 02:04:55;;;;;;;1.50;0.90;;;1.80;99.90;;;;;;6311945;28;20290;-74
2022/03/07 02:08:01;;;;;;;1.10;1.10;;;1.90;99.90;;;;;;6293146;28;20302;-74
2022/03/07 02:11:16;;;;;;;3.03;1.17;;;1.90;99.90;;;;;;6309518;28;20562;-74
2022/03/07 02:14:23;;;;;;;1.30;1.20;;;1.80;99.90;;;;;;6296612;28;20470;-74
2022/03/07 02:17:34;;;;;;;0.97;0.97;;;1.80;99.90;;;;;;6307930;28;20470;-74
2022/03/07 02:20:40;;;;;;;1.00;1.00;;;1.80;99.90;;;;;;6272902;28;20264;-74
2022/03/07 02:23:47;;;;;;;1.23;1.23;;;1.80;99.90;;;;;;6289822;28;20296;-74
2022/03/07 02:26:57;;;;;;;1.80;0.97;;;1.80;99.90;;;;;;6272952;28;20437;-74
2022/03/07 02:30:06;;;;;;;2.03;1.10;;;1.70;99.90;;;;;;6286930;28;20582;-74
2022/03/07 02:33:17;;;;;;;1.07;0.90;;;1.60;99.90;;;;;;6271879;28;20302;-74
2022/03/07 02:36:23;;;;;;;1.37;1.27;;;1.60;99.90;;;;;;6271660;28;20268;-74
2022/03/07 02:39:31;;;;;;;3.00;1.20;;;1.60;99.90;;;;;;6270664;28;20458;-74
2022/03/07 02:42:56;;;;;;;3.40;1.10;;;1.70;99.90;;;;;;6287336;28;20294;-74
2022/03/07 02:46:02;;;;;;;1.07;1.07;;;1.70;99.90;;;;;;6289128;28;20271;-75
2022/03/07 02:49:08;;;;;;;3.83;1.20;;;1.70;99.90;;;;;;6270431;28;20370;-74
2022/03/07 02:52:14;;;;;;;2.33;1.30;;;1.60;99.90;;;;;;6287653;28;20279;-75
2022/03/07 02:55:21;;;;;;;1.70;1.30;;;1.70;99.90;;;;;;6288157;28;20268;-74
2022/03/07 02:58:26;;;;;;;1.83;1.60;;;1.70;99.90;;;;;;6288249;28;20305;-74
2022/03/07 03:01:31;;;;;;;2.30;1.10;;;1.70;99.90;;;;;;6288725;28;20271;-74
2022/03/07 03:04:38;;;;;;;1.20;1.20;;;1.60;99.90;;;;;;6288556;28;20300;-74
2022/03/07 03:07:46;;;;;;;1.27;1.27;;;1.60;99.90;;;;;;6286168;28;20291;-74
2022/03/07 03:10:54;;;;;;;1.70;1.27;;;1.60;99.90;;;;;;6239315;28;20433;-74
2022/03/07 03:14:00;;;;;;;1.57;1.20;;;1.60;99.90;;;;;;6238485;28;20296;-74
2022/03/07 03:17:06;;;;;;;0.93;0.93;;;1.60;99.90;;;;;;6240352;28;20379;-75
2022/03/07 03:20:16;;;;;;;1.03;1.03;;;1.50;99.90;;;;;;6263620;28;20295;-75
2022/03/07 03:23:22;;;;;;;1.10;1.10;;;1.60;99.90;;;;;;6263034;28;20614;-74
2022/03/07 03:26:29;;;;;;;1.30;1.20;;;1.60;99.90;;;;;;6262859;28;20274;-74
2022/03/07 03:29:34;;;;;;;3.47;1.33;;;1.50;99.90;;;;;;6262657;28;20305;-74
2022/03/07 03:32:39;;;;;;;1.37;1.23;;;1.50;99.90;;;;;;6263284;28;20304;-74
2022/03/07 03:35:44;;;;;;;3.77;1.30;;;1.50;99.90;;;;;;6262650;28;20293;-74
2022/03/07 03:38:50;;;;;;;1.90;1.17;;;1.50;99.90;;;;;;6262785;28;20303;-74
2022/03/07 03:41:57;;;;;;;1.23;1.07;;;1.40;99.90;;;;;;6256693;28;20272;-74
2022/03/07 03:45:05;;;;;;;1.73;1.13;;;1.40;99.90;;;;;;6262733;28;20281;-74
2022/03/07 03:48:15;;;;;;;2.43;1.00;;;1.40;99.90;;;;;;6262300;28;20299;-74
2022/03/07 03:51:21;;;;;;;2.83;1.40;;;1.40;99.90;;;;;;6262501;28;20269;-74
2022/03/07 03:54:26;;;;;;;1.10;1.10;;;1.40;99.90;;;;;;6262716;28;20297;-74
2022/03/07 03:57:33;;;;;;;3.60;1.10;;;1.40;99.90;;;;;;6262474;28;20295;-74
2022/03/07 04:00:41;;;;;;;2.63;1.20;;;1.40;99.90;;;;;;6262574;28;20295;-74
2022/03/07 04:03:47;;;;;;;1.10;1.10;;;1.40;99.90;;;;;;6241254;28;20297;-74
2022/03/07 04:06:52;;;;;;;3.43;1.20;;;1.40;99.90;;;;;;6246743;28;20284;-74
2022/03/07 04:10:08;;;;;;;1.53;1.30;;;1.40;99.90;;;;;;6295615;28;20473;-74
2022/03/07 04:13:19;;;;;;;1.30;1.20;;;1.40;99.90;;;;;;6286170;28;20298;-74
2022/03/07 04:16:24;;;;;;;1.00;1.00;;;1.40;99.90;;;;;;6287238;28;20274;-74
2022/03/07 04:19:30;;;;;;;1.43;1.13;;;1.40;99.90;;;;;;6296331;28;20314;-74
2022/03/07 04:22:36;;;;;;;3.13;1.20;;;1.30;99.90;;;;;;6311350;28;20289;-74
2022/03/07 04:25:41;;;;;;;1.57;1.20;;;1.30;99.90;;;;;;6311759;28;20274;-74
2022/03/07 04:28:48;;;;;;;2.77;1.37;;;1.30;99.90;;;;;;6311175;28;20610;-74
2022/03/07 04:31:54;;;;;;;1.10;1.10;;;1.40;99.90;;;;;;6311443;28;20273;-74
2022/03/07 04:35:03;;;;;;;1.20;1.20;;;1.30;99.90;;;;;;6311389;28;20266;-74
2022/03/07 04:38:15;;;;;;;1.70;1.20;;;1.30;99.90;;;;;;6310768;28;20303;-74
2022/03/07 04:41:20;;;;;;;2.40;1.10;;;1.20;99.90;;;;;;6311465;28;20291;-74
2022/03/07 04:44:27;;;;;;;1.43;1.10;;;1.20;99.90;;;;;;6311421;28;20298;-74
2022/03/07 04:47:32;;;;;;;2.27;1.60;;;1.20;99.90;;;;;;6310739;28;20290;-74
2022/03/07 04:50:37;;;;;;;1.13;1.00;;;1.10;99.90;;;;;;6310530;28;20277;-74
2022/03/07 04:53:43;;;;;;;2.17;1.20;;;1.10;99.90;;;;;;6310658;28;20484;-75
2022/03/07 04:56:50;;;;;;;1.30;1.20;;;1.10;99.90;;;;;;6311443;28;20566;-74
2022/03/07 04:59:57;;;;;;;3.03;1.30;;;1.10;99.90;;;;;;6311176;28;20294;-74
2022/03/07 05:03:02;;;;;;;2.13;1.30;;;1.10;99.90;;;;;;6310298;28;20295;-74
2022/03/07 05:06:10;;;;;;;2.43;1.00;;;1.10;99.90;;;;;;6311055;28;20269;-74
2022/03/07 05:09:15;;;;;;;1.90;1.20;;;1.10;99.90;;;;;;6310408;28;20304;-74
2022/03/07 05:12:20;;;;;;;1.13;1.10;;;1.10;99.90;;;;;;6286149;28;20293;-74
2022/03/07 05:15:27;;;;;;;1.50;1.40;;;1.10;99.90;;;;;;6286418;28;20286;-73
2022/03/07 05:18:32;;;;;;;2.27;1.63;;;1.10;99.90;;;;;;6285306;28;20304;-74
2022/03/07 05:21:37;;;;;;;1.50;1.23;;;1.10;99.90;;;;;;6285342;28;20294;-74
2022/03/07 05:24:43;;;;;;;1.83;1.07;;;1.20;99.90;;;;;;6285475;28;20288;-74
2022/03/07 05:27:49;;;;;;;1.90;1.20;;;1.10;99.90;;;;;;6285810;28;20294;-74
2022/03/07 05:30:56;;;;;;;1.20;1.10;;;1.10;99.90;;;;;;6286056;28;20458;-74
2022/03/07 05:34:02;;;;;;;1.33;1.30;;;1.10;99.90;;;;;;6290546;28;20322;-74
2022/03/07 05:37:08;;;;;;;6.10;1.47;;;1.10;99.90;;;;;;6290160;28;20275;-74
2022/03/07 05:40:16;;;;;;;3.03;1.40;;;1.10;99.90;;;;;;6290049;28;20481;-74
2022/03/07 05:43:22;;;;;;;4.87;1.33;;;1.20;99.90;;;;;;6290181;28;20298;-74
2022/03/07 05:46:28;;;;;;;1.37;1.30;;;1.10;99.90;;;;;;6290058;28;20278;-74
2022/03/07 05:49:34;;;;;;;1.70;1.47;;;1.20;99.90;;;;;;6290096;28;20298;-74
2022/03/07 05:52:39;;;;;;;1.53;1.50;;;1.10;99.90;;;;;;6290015;28;20579;-74
2022/03/07 05:55:44;;;;;;;1.50;1.40;;;1.00;99.90;;;;;;6290085;28;20271;-74
2022/03/07 05:58:50;;;;;;;1.67;1.33;;;1.00;99.90;;;;;;6289749;28;20296;-74
2022/03/07 06:01:56;;;;;;;1.47;1.27;;;1.00;99.90;;;;;;6289200;28;20290;-74
2022/03/07 06:05:02;;;;;;;1.23;1.23;;;1.00;99.90;;;;;;6289845;28;20278;-74
2022/03/07 06:08:08;;;;;;;2.30;1.37;;;1.00;99.90;;;;;;6284942;28;20303;-74
2022/03/07 06:11:13;;;;;;;1.40;1.33;;;1.00;99.90;;;;;;6265518;28;20271;-74
2022/03/07 06:14:18;;;;;;;1.50;1.30;;;1.10;99.90;;;;;;6264087;28;20582;-74
2022/03/07 06:17:25;;;;;;;1.20;1.20;;;1.10;99.90;;;;;;6261332;28;20607;-74
2022/03/07 06:20:31;;;;;;;3.57;1.40;;;1.00;99.90;;;;;;6265319;28;20547;-74
2022/03/07 06:23:37;;;;;;;1.70;1.60;;;1.10;99.90;;;;;;6264157;28;20466;-73
2022/03/07 06:26:42;;;;;;;1.83;1.33;;;1.10;99.90;;;;;;6264688;28;20270;-74
2022/03/07 06:29:47;;;;;;;2.93;1.40;;;1.10;99.90;;;;;;6263678;28;20294;-74
2022/03/07 06:32:54;;;;;;;1.60;1.50;;;1.10;99.90;;;;;;6263206;28;20295;-74
2022/03/07 06:36:00;;;;;;;1.50;1.40;;;1.20;99.90;;;;;;6264695;28;20429;-73
2022/03/07 06:39:05;;;;;;;4.10;1.40;;;1.10;99.90;;;;;;6263531;28;20299;-74
2022/03/07 06:42:13;;;;;;;2.83;1.30;;;1.20;99.90;;;;;;6263555;28;20313;-74
2022/03/07 06:45:19;;;;;;;6.63;1.37;;;1.20;99.90;;;;;;6262263;28;20275;-74
2022/03/07 06:48:26;;;;;;;2.53;1.50;;;1.30;99.90;;;;;;6264038;28;20295;-74
2022/03/07 06:51:31;;;;;;;1.50;1.40;;;1.40;99.90;;;;;;6263767;28;20583;-73
2022/03/07 06:54:36;;;;;;;2.00;1.57;;;1.50;99.90;;;;;;6263763;28;20304;-75
2022/03/07 06:57:43;;;;;;;2.17;1.40;;;1.50;99.90;;;;;;6262825;28;20307;-74
2022/03/07 07:00:48;;;;;;;5.13;1.47;;;1.60;99.90;;;;;;6263909;28;20275;-74
2022/03/07 07:03:55;;;;;;;4.93;2.17;;;1.60;99.90;;;;;;6262692;28;20296;-73
2022/03/07 07:07:01;;;;;;;1.70;1.57;;;1.50;99.90;;;;;;6262561;28;20274;-74
2022/03/07 07:10:08;;;;;;;1.83;1.50;;;1.60;99.90;;;;;;6294590;28;20286;-74
2022/03/07 07:13:17;;;;;;;2.60;1.53;;;1.60;99.90;;;;;;6287925;28;20313;-74
2022/03/07 07:16:22;;;;;;;3.10;1.50;;;1.50;99.90;;;;;;6288490;28;20429;-75
2022/03/07 07:19:29;;;;;;;2.27;1.40;;;1.60;99.90;;;;;;6287847;28;20562;-75
2022/03/07 07:22:35;;;;;;;1.37;1.37;;;1.60;99.90;;;;;;6287783;28;20302;-74
2022/03/07 07:25:40;;;;;;;1.97;1.70;;;1.50;99.90;;;;;;6287616;28;20290;-75
2022/03/07 07:28:46;;;;;;;4.80;1.50;;;1.70;99.90;;;;;;6287608;28;20569;-75
2022/03/07 07:31:52;;;;;;;2.57;1.33;;;1.70;99.90;;;;;;6287153;28;20278;-75
2022/03/07 07:34:59;;;;;;;4.37;1.77;;;1.90;99.90;;;;;;6286837;28;20287;-75
2022/03/07 07:38:05;;;;;;;6.97;2.30;;;2.20;99.90;;;;;;6287091;28;20323;-75
2022/03/07 07:41:11;;;;;;;6.60;1.90;;;2.20;99.90;;;;;;6287009;28;20272;-75
2022/03/07 07:44:16;;;;;;;8.17;1.67;;;2.20;99.90;;;;;;6286330;28;20316;-75
2022/03/07 07:47:22;;;;;;;3.00;1.43;;;2.10;99.90;;;;;;6286382;28;20470;-75
2022/03/07 07:50:30;;;;;;;1.40;1.30;;;2.10;99.90;;;;;;6287388;28;20274;-75
2022/03/07 07:53:35;;;;;;;4.47;1.33;;;2.20;99.90;;;;;;6285900;28;20306;-75
2022/03/07 07:56:41;;;;;;;1.90;1.40;;;2.20;99.90;;;;;;6287189;28;20546;-75
2022/03/07 07:59:47;;;;;;;1.53;1.37;;;2.20;99.90;;;;;;6286128;28;20295;-75
2022/03/07 08:03:19;;;;;;;6.93;1.27;;;2.30;99.90;;;;;;6285672;28;20310;-75
2022/03/07 08:06:26;;;;;;;2.10;1.63;;;2.30;99.90;;;;;;6286473;28;20271;-74
2022/03/07 08:09:31;;;;;;;4.60;1.37;;;2.30;99.90;;;;;;6286895;28;20306;-74
2022/03/07 08:12:37;;;;;;;4.10;1.57;;;2.30;99.90;;;;;;6310344;28;20288;-75
2022/03/07 08:15:42;;;;;;;1.67;1.50;;;2.40;99.90;;;;;;6311621;28;20273;-74
2022/03/07 08:18:48;;;;;;;3.40;1.30;;;2.40;99.90;;;;;;6311404;28;20296;-74
2022/03/07 08:21:55;;;;;;;1.73;1.30;;;2.40;99.90;;;;;;6310362;28;20282;-75
2022/03/07 08:25:00;;;;;;;1.60;1.33;;;2.50;99.90;;;;;;6311909;28;20286;-74
2022/03/07 08:28:06;;;;;;;1.73;1.30;;;2.50;99.90;;;;;;6310530;28;20298;-75
2022/03/07 08:31:12;;;;;;;5.07;1.70;;;2.50;99.90;;;;;;6311950;28;20270;-75
2022/03/07 08:34:18;;;;;;;1.73;1.17;;;2.50;99.90;;;;;;6310940;28;20299;-75
2022/03/07 08:37:25;;;;;;;2.33;1.53;;;2.50;99.90;;;;;;6311103;28;20309;-75
2022/03/07 08:40:30;;;;;;;1.53;1.30;;;2.60;99.90;;;;;;6310642;28;20271;-75
2022/03/07 08:43:35;;;;;;;3.17;1.23;;;2.60;99.90;;;;;;6310228;28;20298;-75
2022/03/07 08:46:41;;;;;;;4.33;1.20;;;2.80;99.90;;;;;;6310985;28;20270;-75
2022/03/07 08:49:46;;;;;;;1.27;1.00;;;2.80;99.90;;;;;;6310615;28;20296;-75
2022/03/07 08:52:53;;;;;;;2.30;1.10;;;2.90;99.90;;;;;;6310478;28;20298;-74
2022/03/07 08:55:58;;;;;;;3.03;1.20;;;2.90;99.90;;;;;;6310742;28;20574;-74
2022/03/07 08:59:27;;;;;;;1.03;1.03;;;2.80;99.90;;;;;;6310495;28;20299;-75
2022/03/07 09:02:33;;;;;;;2.40;1.10;;;2.90;99.90;;;;;;6310089;28;20309;-78
2022/03/07 09:05:38;;;;;;;1.90;1.13;;;3.00;99.90;;;;;;6312019;28;20270;-74
2022/03/07 09:08:45;;;;;;;5.47;1.20;;;3.00;99.90;;;;;;6315295;28;20310;-74
2022/03/07 09:11:50;;;;;;;2.13;1.23;;;3.00;99.90;;;;;;6294811;28;20423;-75
2022/03/07 09:14:57;;;;;;;1.33;1.23;;;3.00;99.90;;;;;;6289629;28;20278;-75
2022/03/07 09:18:03;;;;;;;1.10;1.10;;;3.00;99.90;;;;;;6289773;28;20464;-74
2022/03/07 09:21:08;;;;;;;1.20;1.20;;;3.00;99.90;;;;;;6290327;28;20456;-74
2022/03/07 09:24:15;;;;;;;2.00;1.30;;;3.00;99.90;;;;;;6290504;28;20298;-74
2022/03/07 09:27:21;;;;;;;1.70;1.13;;;3.10;99.90;;;;;;6290426;28;20297;-75
2022/03/07 09:30:26;;;;;;;3.80;1.10;;;3.20;99.90;;;;;;6290836;28;20273;-75
2022/03/07 09:33:32;;;;;;;5.10;1.30;;;3.30;99.90;;;;;;6289900;28;20312;-74
2022/03/07 09:36:37;;;;;;;1.43;1.10;;;3.30;99.90;;;;;;6290553;28;20273;-75
2022/03/07 09:39:44;;;;;;;1.83;1.20;;;3.30;99.90;;;;;;6290437;28;20289;-76
2022/03/07 09:42:50;;;;;;;1.90;1.10;;;3.20;99.90;;;;;;6289975;28;20329;-75
2022/03/07 09:45:55;;;;;;;0.77;0.77;;;3.20;99.90;;;;;;6290533;28;20470;-76
2022/03/07 09:49:01;;;;;;;3.00;1.00;;;3.40;99.90;;;;;;6289793;28;20302;-76
2022/03/07 09:52:07;;;;;;;1.50;1.30;;;3.40;99.90;;;;;;6290366;28;20276;-76
2022/03/07 09:55:16;;;;;;;2.17;1.20;;;3.40;99.90;;;;;;6289398;28;20278;-76
2022/03/07 09:58:22;;;;;;;3.47;1.30;;;3.50;99.90;;;;;;6289519;28;20301;-75
2022/03/07 10:01:27;;;;;;;1.60;1.13;;;3.50;99.90;;;;;;6290141;28;20278;-76
2022/03/07 10:04:43;;;;;;;1.23;1.13;;;3.50;99.90;;;;;;6289082;28;20543;-76
2022/03/07 10:07:48;;;;;;;2.07;1.13;;;3.50;99.90;;;;;;6287469;28;20293;-76
2022/03/07 10:10:56;;;;;;;4.50;1.40;;;3.70;99.90;;;;;;6252723;28;20538;-75
2022/03/07 10:14:04;;;;;;;5.53;1.20;;;3.70;99.90;;;;;;6264584;28;20305;-75
2022/03/07 10:17:19;;;;;;;3.63;1.33;;;3.70;99.90;;;;;;6263585;28;20271;-76
2022/03/07 10:20:26;;;;;;;3.33;1.20;;;3.80;99.90;;;;;;6264372;28;20462;-75
2022/03/07 10:23:32;;;;;;;3.30;1.40;;;3.90;99.90;;;;;;6263835;28;20475;-75
2022/03/07 10:26:39;;;;;;;1.37;1.27;;;4.00;99.90;;;;;;6263995;28;20292;-76
2022/03/07 10:29:47;;;;;;;5.13;1.30;;;4.10;99.90;;;;;;6264137;28;20299;-75
2022/03/07 10:32:56;;;;;;;1.37;1.07;;;4.10;99.90;;;;;;6264091;28;20291;-76
2022/03/07 10:36:01;;;;;;;2.10;1.40;;;4.10;99.90;;;;;;6264685;28;20275;-76
2022/03/07 10:39:10;;;;;;;2.13;1.20;;;4.20;99.90;;;;;;6263652;28;20298;-76
2022/03/07 10:42:18;;;;;;;3.47;1.20;;;4.30;99.90;;;;;;6263787;28;20294;-76
2022/03/07 10:45:24;;;;;;;1.60;1.30;;;4.30;99.90;;;;;;6264240;28;20294;-76
2022/03/07 10:48:40;;;;;;;3.10;1.30;;;4.40;99.90;;;;;;6263667;28;20297;-76
2022/03/07 10:51:52;;;;;;;2.67;1.37;;;4.70;99.10;;;;;;6264671;28;20365;-76
2022/03/07 10:54:58;;;;;;;3.33;1.30;;;4.70;98.70;;;;;;6263028;28;20284;-75
2022/03/07 10:58:10;;;;;;;2.23;1.30;;;4.70;99.00;;;;;;6263605;28;20314;-76
2022/03/07 11:01:15;;;;;;;2.20;1.10;;;4.70;99.20;;;;;;6264015;28;20275;-76
2022/03/07 11:04:24;;;;;;;2.20;1.30;;;4.80;98.80;;;;;;6262942;28;20303;-76
2022/03/07 11:07:29;;;;;;;2.87;1.47;;;4.90;98.80;;;;;;6263052;28;20295;-76
2022/03/07 11:10:36;;;;;;;1.77;1.40;;;4.90;98.70;;;;;;6292075;28;20294;-75
2022/03/07 11:13:43;;;;;;;2.37;1.17;;;5.00;98.50;;;;;;6288036;28;20301;-73
2022/03/07 11:16:50;;;;;;;3.10;1.30;;;4.90;98.60;;;;;;6287789;28;20273;-74
2022/03/07 11:19:56;;;;;;;6.17;2.23;;;4.90;99.20;;;;;;6287455;28;20273;-74
2022/03/07 11:23:03;;;;;;;8.30;2.50;;;4.90;99.00;;;;;;6287804;28;20293;-74
2022/03/07 11:26:11;;;;;;;3.77;1.80;;;5.00;99.00;;;;;;6287611;28;20524;-74
2022/03/07 11:29:18;;;;;;;5.70;1.33;;;5.00;99.10;;;;;;6287143;28;20297;-76
2022/03/07 11:32:24;;;;;;;1.30;0.97;;;5.10;98.90;;;;;;6286599;28;20313;-74
2022/03/07 11:35:35;;;;;;;3.50;1.13;;;5.20;98.10;;;;;;6287091;28;20279;-73
2022/03/07 11:38:52;;;;;;;1.40;1.30;;;5.30;98.00;;;;;;6287034;28;20310;-73
2022/03/07 11:42:09;;;;;;;2.03;1.13;;;5.20;98.30;;;;;;6286193;28;20268;-75
2022/03/07 11:45:23;;;;;;;6.87;1.27;;;5.30;97.60;;;;;;6287541;28;20288;-74
2022/03/07 11:48:32;;;;;;;0.83;0.83;;;5.40;96.70;;;;;;6269498;28;20681;-74
2022/03/07 11:51:39;;;;;;;1.80;1.27;;;5.50;96.50;;;;;;6287785;28;20276;-74
2022/03/07 11:54:55;;;;;;;2.63;1.03;;;5.50;96.80;;;;;;6286483;28;20295;-74
2022/03/07 11:58:04;;;;;;;4.40;1.20;;;5.60;96.90;;;;;;6286188;28;20297;-75
2022/03/07 12:01:13;;;;;;;11.87;1.27;;;5.50;97.10;;;;;;6286227;28;20541;-75
2022/03/07 12:04:19;;;;;;;3.67;1.20;;;5.80;95.50;;;;;;6286631;28;20297;-74
2022/03/07 12:07:27;;;;;;;3.57;1.00;;;5.70;96.10;;;;;;6286271;28;20296;-74
2022/03/07 12:10:33;;;;;;;4.63;1.10;;;5.80;96.70;;;;;;6295687;28;20479;-74
2022/03/07 12:13:48;;;;;;;2.97;1.20;;;5.80;97.00;;;;;;6310472;28;20295;-75
2022/03/07 12:16:55;;;;;;;5.03;1.30;;;5.80;97.30;;;;;;6309884;28;20271;-75
2022/03/07 12:20:01;;;;;;;3.20;1.10;;;5.80;97.30;;;;;;6311423;28;20268;-75
2022/03/07 12:23:06;;;;;;;9.80;1.43;;;5.80;97.50;;;;;;6310525;28;20295;-75
2022/03/07 12:26:13;;;;;;;4.30;1.90;;;5.80;97.70;;;;;;6310988;28;20292;-75
2022/03/07 12:29:20;;;;;;;2.83;1.00;;;5.90;97.70;;;;;;6293870;28;20296;-75
2022/03/07 12:32:26;;;;;;;6.83;1.20;;;5.90;97.70;;;;;;6311375;28;20292;-75
2022/03/07 12:35:32;;;;;;;3.00;1.20;;;6.00;97.80;;;;;;6311233;28;20458;-75
2022/03/07 12:38:46;;;;;;;4.50;1.20;;;6.00;97.80;;;;;;6310164;28;20296;-75
2022/03/07 12:41:51;;;;;;;3.83;1.30;;;6.00;97.80;;;;;;6311133;28;20267;-74
2022/03/07 12:44:59;;;;;;;1.87;1.10;;;6.00;98.10;;;;;;6310899;28;20282;-75
2022/03/07 12:48:08;;;;;;;1.00;1.00;;;6.00;98.30;;;;;;6310203;28;20487;-74
2022/03/07 12:51:18;;;;;;;25.07;2.37;;;6.00;98.50;;;;;;6310352;28;20572;-75
2022/03/07 12:54:33;;;;;;;4.37;1.63;;;6.00;98.50;;;;;;6310677;28;20300;-74
2022/03/07 12:57:39;;;;;;;1.93;1.00;;;6.00;98.70;;;;;;6310296;28;20292;-75
2022/03/07 13:00:46;;;;;;;4.10;1.73;;;6.00;98.90;;;;;;6311472;28;20449;-74
2022/03/07 13:03:54;;;;;;;3.60;1.00;;;6.00;99.10;;;;;;6310648;28;20298;-75
2022/03/07 13:07:08;;;;;;;1.37;1.30;;;6.10;98.90;;;;;;6309915;28;20288;-75
2022/03/07 13:10:14;;;;;;;5.03;1.10;;;6.10;99.30;;;;;;6301805;28;20290;-75
2022/03/07 13:13:19;;;;;;;1.07;0.87;;;6.10;99.20;;;;;;6285630;28;20456;-75
2022/03/07 13:16:27;;;;;;;1.27;1.27;;;6.00;99.20;;;;;;6285456;28;20282;-75
2022/03/07 13:19:37;;;;;;;3.53;1.30;;;6.10;99.10;;;;;;6267954;28;20291;-75
2022/03/07 13:22:42;;;;;;;1.67;1.00;;;6.10;99.40;;;;;;6285601;28;20417;-75
2022/03/07 13:25:49;;;;;;;1.23;1.10;;;6.10;99.40;;;;;;6285915;28;20275;-75
2022/03/07 13:29:09;;;;;;;1.07;0.70;;;6.10;99.30;;;;;;6285810;28;20301;-75
2022/03/07 13:32:17;;;;;;;3.97;1.10;;;6.20;99.20;;;;;;6284714;28;20294;-75
2022/03/07 13:35:29;;;;;;;3.00;1.07;;;6.30;99.30;;;;;;6286888;28;20279;-75
2022/03/07 13:38:36;;;;;;;7.43;1.20;;;6.40;99.20;;;;;;6285116;28;20306;-75
2022/03/07 13:41:49;;;;;;;2.93;1.17;;;6.40;99.30;;;;;;6284067;28;20348;-75
2022/03/07 13:44:57;;;;;;;1.37;0.90;;;6.40;99.30;;;;;;6285446;28;20557;-75
2022/03/07 13:48:04;;;;;;;3.67;1.70;;;6.50;99.40;;;;;;6284418;28;20301;-74
2022/03/07 13:51:14;;;;;;;3.13;1.00;;;6.70;99.30;;;;;;6285773;28;20310;-75
2022/03/07 13:54:19;;;;;;;1.00;1.00;;;6.70;99.20;;;;;;6288671;28;20296;-75
2022/03/07 13:57:33;;;;;;;2.43;1.10;;;6.70;99.20;;;;;;6289785;28;20297;-75
2022/03/07 14:00:38;;;;;;;4.93;1.37;;;6.80;99.20;;;;;;6289979;28;20278;-74
2022/03/07 14:03:46;;;;;;;3.80;1.10;;;6.80;99.20;;;;;;6289196;28;20300;-75
2022/03/07 14:07:02;;;;;;;1.20;1.10;;;6.90;99.10;;;;;;6289331;28;20273;-75
2022/03/07 14:10:28;;;;;;;7.60;1.33;;;7.00;99.00;;;;;;6288191;28;20598;-74
2022/03/07 14:13:38;;;;;;;2.97;0.77;;;6.90;99.10;;;;;;6289164;28;20298;-74
2022/03/07 14:16:44;;;;;;;1.13;0.90;;;6.80;99.20;;;;;;6289210;28;20271;-75
2022/03/07 14:19:49;;;;;;;7.40;0.93;;;6.80;99.50;;;;;;6288814;28;20298;-74
2022/03/07 14:22:57;;;;;;;2.50;1.00;;;6.80;99.40;;;;;;6288281;28;20287;-75
2022/03/07 14:26:02;;;;;;;1.23;0.90;;;6.70;99.60;;;;;;6288940;28;20270;-75
2022/03/07 14:29:09;;;;;;;4.70;0.90;;;6.70;99.70;;;;;;6289065;28;20306;-75
2022/03/07 14:32:15;;;;;;;6.53;1.53;;;6.70;99.80;;;;;;6288965;28;20469;-75
2022/03/07 14:35:22;;;;;;;3.77;1.00;;;6.60;99.90;;;;;;6289199;28;20274;-75
2022/03/07 14:38:28;;;;;;;4.63;1.13;;;6.60;99.90;;;;;;6289437;28;20306;-75
2022/03/07 14:41:35;;;;;;;7.20;1.20;;;6.60;99.90;;;;;;6287417;28;20275;-75
2022/03/07 14:45:01;;;;;;;2.97;0.93;;;6.60;99.90;;;;;;6287940;28;20283;-74
2022/03/07 14:48:07;;;;;;;2.63;0.90;;;6.60;99.90;;;;;;6287908;28;20305;-75
2022/03/07 14:51:13;;;;;;;1.70;1.00;;;6.50;99.90;;;;;;6287246;28;20458;-75
2022/03/07 14:54:21;;;;;;;1.60;1.10;;;6.40;99.90;;;;;;6288311;28;20615;-75
2022/03/07 14:57:27;;;;;;;6.03;1.03;;;6.50;99.90;;;;;;6288064;28;20295;-75
2022/03/07 15:00:32;;;;;;;0.80;0.80;;;6.50;99.90;;;;;;6289250;28;20270;-75
2022/03/07 15:03:37;;;;;;;5.00;0.90;;;6.50;99.90;;;;;;6287435;28;20290;-75
2022/03/07 15:06:44;;;;;;;3.20;1.17;;;6.40;99.90;;;;;;6288328;28;20270;-75
2022/03/07 15:09:51;;;;;;;2.27;1.20;;;6.40;99.90;;;;;;6265157;28;20310;-75
2022/03/07 15:12:56;;;;;;;4.40;1.03;;;6.40;99.90;;;;;;6288494;28;20295;-75
2022/03/07 15:16:01;;;;;;;2.30;1.10;;;6.30;99.90;;;;;;6288342;28;20274;-75
2022/03/07 15:19:10;;;;;;;1.07;0.87;;;6.30;99.90;;;;;;6287617;28;20301;-75
2022/03/07 15:22:16;;;;;;;1.43;1.00;;;6.30;99.90;;;;;;6287521;28;20292;-75
2022/03/07 15:25:23;;;;;;;4.13;0.90;;;6.30;99.90;;;;;;6288245;28;20269;-75
2022/03/07 15:28:28;;;;;;;2.60;1.00;;;6.30;99.90;;;;;;6287371;28;20301;-76
2022/03/07 15:31:34;;;;;;;1.53;0.90;;;6.30;99.90;;;;;;6287870;28;20589;-75
2022/03/07 15:34:39;;;;;;;1.20;1.10;;;6.20;99.90;;;;;;6287374;28;20299;-75
2022/03/07 15:37:44;;;;;;;1.60;1.00;;;6.20;99.90;;;;;;6287578;28;20408;-74
2022/03/07 15:40:53;;;;;;;7.17;0.80;;;6.20;99.90;;;;;;6287707;28;20554;-75
2022/03/07 15:43:59;;;;;;;5.87;1.10;;;6.10;99.90;;;;;;6287252;28;20301;-75
2022/03/07 15:47:05;;;;;;;1.07;1.00;;;6.10;99.90;;;;;;6286692;28;20294;-75
2022/03/07 15:50:12;;;;;;;7.00;1.00;;;6.00;99.90;;;;;;6287063;28;20438;-75
2022/03/07 15:53:18;;;;;;;1.77;1.03;;;6.00;99.90;;;;;;6286661;28;20298;-75
2022/03/07 15:56:25;;;;;;;1.33;1.33;;;5.90;99.90;;;;;;6287401;28;20269;-75
2022/03/07 15:59:30;;;;;;;3.70;1.20;;;5.90;99.90;;;;;;6286892;28;20307;-75
2022/03/07 16:02:38;;;;;;;11.63;1.20;;;5.90;99.90;;;;;;6286324;28;20289;-75
2022/03/07 16:05:44;;;;;;;4.53;1.30;;;5.80;99.90;;;;;;6287252;28;20274;-74
2022/03/07 16:08:50;;;;;;;4.23;1.10;;;5.80;99.90;;;;;;6293738;28;20321;-74
2022/03/07 16:11:56;;;;;;;4.00;1.20;;;5.70;99.90;;;;;;6290353;28;20398;-74
2022/03/07 16:15:02;;;;;;;7.93;1.67;;;5.70;99.90;;;;;;6286820;28;20278;-74
2022/03/07 16:18:09;;;;;;;2.13;1.10;;;5.60;99.90;;;;;;6285876;28;20297;-75
2022/03/07 16:21:15;;;;;;;3.40;1.07;;;5.60;99.90;;;;;;6286611;28;20276;-74
2022/03/07 16:24:22;;;;;;;2.20;1.00;;;5.60;99.90;;;;;;6286483;28;20464;-75
2022/03/07 16:27:28;;;;;;;6.27;1.23;;;5.60;99.90;;;;;;6269144;28;20297;-75